Time;durP1;ratioP1;P1;durP2;ratioP2;P2;SDS_P1;SDS_P2;PMS_P1;PMS_P2;Temp;Humidity;BMP_temperature;BMP_pressure;BME280_temperature;BME280_humidity;BME280_pressure;Samples;Min_cycle;Max_cycle;Signal;HPM_P1;HPM_P2
2023/09/06 00:02:12;;;;;;;4.13;3.70;;;;;;;22.85;52.82;95540.97;6049851;28;109050;-63
2023/09/06 00:05:15;;;;;;;4.43;3.30;;;;;;;22.84;52.71;95534.84;6060174;28;108878;-64
2023/09/06 00:08:18;;;;;;;4.05;3.70;;;;;;;22.85;52.82;95532.97;6059966;28;109488;-63
2023/09/06 00:11:21;;;;;;;3.90;3.50;;;;;;;22.82;53.02;95530.91;6060875;28;108732;-63
2023/09/06 00:14:29;;;;;;;5.22;4.72;;;;;;;22.84;52.42;95528.72;6049040;28;110124;-63
2023/09/06 00:17:36;;;;;;;4.70;4.30;;;;;;;22.85;52.77;95527.63;6058757;28;109285;-63
2023/09/06 00:20:40;;;;;;;4.15;3.85;;;;;;;22.87;52.65;95522.81;6059601;28;108994;-63
2023/09/06 00:23:43;;;;;;;4.85;4.28;;;;;;;22.85;52.19;95536.44;6057835;28;108714;-64
2023/09/06 00:26:46;;;;;;;4.80;4.40;;;;;;;22.86;52.74;95535.38;6051294;28;109941;-63
2023/09/06 00:29:50;;;;;;;5.70;5.20;;;;;;;22.89;52.08;95531.31;6060476;28;108712;-64
2023/09/06 00:33:42;;;;;;;6.32;5.72;;;;;;;23.00;52.06;95524.63;6064127;28;108790;-64
2023/09/06 00:36:45;;;;;;;6.05;5.45;;;;;;;23.07;51.47;95529.59;6053350;28;109220;-64
2023/09/06 00:39:49;;;;;;;4.90;4.50;;;;;;;23.10;51.57;95526.31;6062465;28;108933;-63
2023/09/06 00:42:53;;;;;;;4.60;4.20;;;;;;;23.11;51.49;95526.00;6063272;28;110119;-64
2023/09/06 00:45:59;;;;;;;4.67;4.20;;;;;;;23.11;51.53;95515.34;6062774;28;109017;-64
2023/09/06 00:49:04;;;;;;;4.43;4.03;;;;;;;23.10;52.02;95521.78;6053330;28;110724;-65
2023/09/06 00:52:07;;;;;;;4.40;4.00;;;;;;;23.10;51.85;95519.09;6063345;28;108954;-64
2023/09/06 00:55:11;;;;;;;4.60;4.20;;;;;;;23.12;51.73;95516.13;6062623;28;108756;-63
2023/09/06 00:58:16;;;;;;;4.40;3.80;;;;;;;23.01;52.06;95503.00;6057233;28;109174;-65
2023/09/06 01:01:21;;;;;;;4.30;3.90;;;;;;;22.97;51.73;95498.56;6056958;28;108808;-66
2023/09/06 01:04:25;;;;;;;4.80;3.83;;;;;;;22.89;51.99;95496.59;6064552;28;108696;-65
2023/09/06 01:07:34;;;;;;;4.30;3.90;;;;;;;22.89;52.10;95496.59;6062807;28;108967;-65
2023/09/06 01:10:37;;;;;;;3.95;3.60;;;;;;;22.83;52.23;95503.13;6053447;28;109152;-65
2023/09/06 01:13:40;;;;;;;4.57;4.17;;;;;;;22.83;52.48;95511.13;6063200;28;109486;-65
2023/09/06 01:16:47;;;;;;;4.50;4.10;;;;;;;22.83;52.33;95497.78;6061787;28;108686;-66
2023/09/06 01:19:54;;;;;;;3.90;3.55;;;;;;;22.84;51.88;95505.50;6062528;28;108960;-65
2023/09/06 01:23:07;;;;;;;4.70;3.90;;;;;;;22.84;51.93;95504.69;6052463;28;108862;-65
2023/09/06 01:26:12;;;;;;;5.53;4.20;;;;;;;22.83;52.24;95503.91;6064430;28;108730;-65
2023/09/06 01:29:15;;;;;;;5.20;4.70;;;;;;;22.81;52.34;95519.44;6052782;28;108843;-65
2023/09/06 01:32:18;;;;;;;6.22;5.05;;;;;;;22.81;52.48;95502.63;6059148;28;108728;-65
2023/09/06 01:35:21;;;;;;;4.88;4.47;;;;;;;22.80;52.41;95503.72;6049257;28;109187;-65
2023/09/06 01:38:24;;;;;;;4.30;3.90;;;;;;;22.81;52.39;95505.31;6063756;28;108802;-65
2023/09/06 01:41:29;;;;;;;4.30;3.80;;;;;;;22.78;52.06;95497.91;6063399;28;109352;-64
2023/09/06 01:44:33;;;;;;;4.40;3.37;;;;;;;22.77;52.04;95502.44;6052927;28;109220;-65
2023/09/06 01:47:36;;;;;;;4.90;3.80;;;;;;;22.77;52.37;95507.00;6063596;28;108581;-64
2023/09/06 01:50:39;;;;;;;4.47;4.00;;;;;;;22.74;51.85;95495.03;6047888;28;108883;-64
2023/09/06 01:53:42;;;;;;;4.80;4.30;;;;;;;22.73;51.71;95496.13;6057577;28;108728;-68
2023/09/06 01:56:46;;;;;;;3.90;3.50;;;;;;;22.75;52.16;95499.28;6053841;28;110736;-65
2023/09/06 01:59:50;;;;;;;4.23;3.50;;;;;;;22.74;51.69;95494.25;6063273;28;108993;-67
2023/09/06 02:02:53;;;;;;;4.10;3.60;;;;;;;22.70;52.30;95486.06;6063943;28;108596;-66
2023/09/06 02:05:56;;;;;;;4.50;4.10;;;;;;;22.72;52.26;95488.44;6058338;28;110757;-63
2023/09/06 02:08:59;;;;;;;4.57;4.17;;;;;;;22.72;52.07;95493.78;6053287;28;108731;-65
2023/09/06 02:12:05;;;;;;;4.30;3.90;;;;;;;22.72;52.06;95493.78;6058387;28;109205;-70
2023/09/06 02:15:10;;;;;;;4.50;4.10;;;;;;;22.74;51.83;95496.94;6045048;28;108790;-68
2023/09/06 02:18:15;;;;;;;5.10;4.07;;;;;;;22.69;52.00;95501.28;6051751;28;108909;-67
2023/09/06 02:21:18;;;;;;;4.40;4.00;;;;;;;22.67;51.83;95497.31;6061574;28;111505;-70
2023/09/06 02:24:21;;;;;;;5.00;3.40;;;;;;;22.67;51.87;95492.75;6062375;28;109026;-69
2023/09/06 02:27:26;;;;;;;4.40;3.80;;;;;;;22.65;51.77;95502.16;6063811;28;108737;-70
2023/09/06 02:30:29;;;;;;;4.10;3.67;;;;;;;22.65;51.64;95499.50;6050816;28;109533;-69
2023/09/06 02:33:32;;;;;;;5.30;3.60;;;;;;;22.64;52.00;95508.56;6058147;28;109108;-70
2023/09/06 02:36:35;;;;;;;4.30;4.00;;;;;;;22.65;51.96;95497.59;6062832;28;108855;-70
2023/09/06 02:39:39;;;;;;;4.10;3.70;;;;;;;22.64;51.63;95496.03;6061170;28;108776;-67
2023/09/06 02:42:48;;;;;;;4.90;3.57;;;;;;;22.62;51.59;95500.88;6052220;28;109063;-69
2023/09/06 02:45:54;;;;;;;4.30;3.90;;;;;;;22.63;51.51;95499.78;6062242;28;108999;-68
2023/09/06 02:48:58;;;;;;;5.10;4.00;;;;;;;22.64;51.52;95497.91;6061108;28;108822;-67
2023/09/06 02:52:01;;;;;;;4.55;4.10;;;;;;;22.61;51.54;95499.31;6054851;28;108900;-68
2023/09/06 02:55:10;;;;;;;4.57;4.10;;;;;;;22.64;51.74;95498.69;6055700;28;108955;-68
2023/09/06 02:58:16;;;;;;;5.30;4.22;;;;;;;22.64;51.71;95497.91;6061852;28;108975;-68
2023/09/06 03:01:22;;;;;;;5.10;4.57;;;;;;;22.64;51.43;95498.69;6061214;28;109072;-68
2023/09/06 03:04:25;;;;;;;4.80;4.30;;;;;;;22.66;51.76;95507.19;6051620;28;108979;-69
2023/09/06 03:07:28;;;;;;;5.60;4.32;;;;;;;22.65;51.48;95508.28;6060965;28;109083;-68
2023/09/06 03:10:34;;;;;;;6.97;4.60;;;;;;;22.55;51.99;95505.00;6058894;28;110941;-66
2023/09/06 03:13:39;;;;;;;5.73;5.10;;;;;;;22.18;53.16;95506.78;6062477;28;108857;-67
2023/09/06 03:16:42;;;;;;;5.00;4.60;;;;;;;22.01;53.75;95501.19;6050981;28;108824;-67
2023/09/06 03:19:53;;;;;;;5.22;4.72;;;;;;;21.86;53.43;95499.63;6059201;28;109482;-65
2023/09/06 03:22:58;;;;;;;5.30;4.90;;;;;;;21.79;54.41;95501.81;6061011;28;109554;-64
2023/09/06 03:26:02;;;;;;;5.03;4.50;;;;;;;21.67;54.45;95504.13;6056969;28;109631;-65
2023/09/06 03:29:10;;;;;;;5.47;4.95;;;;;;;22.09;52.82;95503.19;6056513;28;108910;-65
2023/09/06 03:32:13;;;;;;;6.10;4.70;;;;;;;22.33;52.69;95508.34;6050066;28;109297;-65
2023/09/06 03:35:17;;;;;;;6.18;4.47;;;;;;;22.44;52.45;95511.63;6058283;28;108963;-64
2023/09/06 03:38:25;;;;;;;5.38;4.80;;;;;;;22.56;52.88;95501.25;6050188;28;108853;-63
2023/09/06 03:41:29;;;;;;;5.95;4.40;;;;;;;22.70;52.06;95508.19;6059943;28;109482;-63
2023/09/06 03:44:34;;;;;;;7.07;4.95;;;;;;;22.70;52.03;95507.41;6060978;28;108875;-63
2023/09/06 03:47:38;;;;;;;5.60;4.60;;;;;;;22.73;52.05;95506.03;6060180;28;109086;-64
2023/09/06 03:50:43;;;;;;;5.17;4.60;;;;;;;22.60;52.16;95511.06;6049258;28;109730;-63
2023/09/06 03:53:47;;;;;;;7.60;4.97;;;;;;;22.30;52.70;95512.41;6060850;28;109004;-65
2023/09/06 03:56:50;;;;;;;6.70;4.70;;;;;;;22.20;53.13;95511.81;6057036;28;109083;-63
2023/09/06 03:59:55;;;;;;;5.50;4.97;;;;;;;21.98;52.96;95521.22;6040240;28;109005;-63
2023/09/06 04:02:58;;;;;;;5.20;4.70;;;;;;;22.00;52.70;95516.41;6055596;28;109342;-64
2023/09/06 04:06:03;;;;;;;7.10;5.10;;;;;;;22.14;52.37;95523.63;6060006;28;108858;-67
2023/09/06 04:09:12;;;;;;;6.13;5.53;;;;;;;22.09;52.20;95514.66;6060816;28;108907;-66
2023/09/06 04:12:15;;;;;;;10.15;9.35;;;;;;;21.91;52.59;95518.16;6050492;28;108805;-67
2023/09/06 04:15:22;;;;;;;6.85;6.20;;;;;;;21.75;52.87;95514.16;6061260;28;108605;-67
2023/09/06 04:18:25;;;;;;;7.70;5.90;;;;;;;21.80;53.19;95514.06;6050289;28;109263;-67
2023/09/06 04:21:28;;;;;;;6.70;5.65;;;;;;;21.96;52.60;95519.94;6061877;28;109289;-67
2023/09/06 04:24:31;;;;;;;6.90;5.45;;;;;;;22.26;52.03;95529.28;6046873;28;108981;-68
2023/09/06 04:27:34;;;;;;;6.60;5.70;;;;;;;22.39;52.67;95520.53;6059550;28;108762;-67
2023/09/06 04:30:41;;;;;;;8.35;6.78;;;;;;;22.46;52.90;95526.22;6048383;28;108611;-69
2023/09/06 04:33:44;;;;;;;8.23;7.38;;;;;;;22.54;51.99;95530.09;6055915;28;108960;-65
2023/09/06 04:36:47;;;;;;;8.15;6.22;;;;;;;22.47;51.66;95519.03;6055309;28;109064;-68
2023/09/06 04:39:53;;;;;;;10.30;5.50;;;;;;;22.64;51.91;95527.25;6060310;28;108633;-68
2023/09/06 04:42:56;;;;;;;10.60;6.40;;;;;;;22.84;51.11;95537.50;6060280;28;108682;-66
2023/09/06 04:46:00;;;;;;;6.47;5.70;;;;;;;22.90;50.60;95527.53;6050523;28;109773;-70
2023/09/06 04:49:04;;;;;;;8.25;5.70;;;;;;;22.89;50.43;95536.63;6061033;28;108934;-70
2023/09/06 04:52:07;;;;;;;6.33;5.70;;;;;;;22.86;51.30;95537.25;6061313;28;108896;-69
2023/09/06 04:55:12;;;;;;;6.60;5.80;;;;;;;22.82;50.95;95542.38;6060968;28;108668;-70
2023/09/06 04:58:16;;;;;;;6.00;5.40;;;;;;;22.81;51.18;95548.00;6049614;28;108858;-69
2023/09/06 05:01:20;;;;;;;9.40;5.50;;;;;;;22.79;51.49;95545.63;6060822;28;108801;-69
2023/09/06 05:04:23;;;;;;;6.97;5.60;;;;;;;22.81;50.88;95548.00;6060978;28;108704;-71
2023/09/06 05:07:27;;;;;;;6.20;5.60;;;;;;;22.81;50.77;95550.66;6056024;28;108583;-69
2023/09/06 05:10:30;;;;;;;7.80;5.37;;;;;;;22.82;51.27;95546.91;6054677;28;111010;-70
2023/09/06 05:13:33;;;;;;;6.50;5.20;;;;;;;22.81;50.81;95561.34;6061119;28;108686;-69
2023/09/06 05:16:38;;;;;;;5.40;4.90;;;;;;;22.84;50.93;95552.72;6061393;28;108598;-71
2023/09/06 05:19:41;;;;;;;5.70;5.20;;;;;;;22.85;51.12;95554.31;6054679;28;109208;-67
2023/09/06 05:22:44;;;;;;;6.77;5.10;;;;;;;22.85;51.06;95557.81;6065049;28;108972;-69
2023/09/06 05:25:47;;;;;;;5.90;5.30;;;;;;;22.86;51.07;95563.94;6064380;28;109097;-70
2023/09/06 05:28:50;;;;;;;6.63;5.43;;;;;;;22.86;50.96;95563.94;6065121;28;108756;-69
2023/09/06 05:31:54;;;;;;;5.53;5.03;;;;;;;22.87;50.78;95573.50;6054145;28;109170;-69
2023/09/06 05:34:58;;;;;;;5.72;5.22;;;;;;;22.87;50.67;95571.63;6064813;28;108823;-70
2023/09/06 05:38:02;;;;;;;6.45;5.00;;;;;;;22.87;50.75;95565.50;6064684;28;108938;-71
2023/09/06 05:41:06;;;;;;;6.22;5.00;;;;;;;22.88;50.70;95567.09;6065006;28;108636;-70
2023/09/06 05:44:13;;;;;;;5.40;4.90;;;;;;;22.89;50.33;95574.00;6054338;28;109678;-70
2023/09/06 05:47:18;;;;;;;5.32;4.82;;;;;;;22.89;50.62;95571.34;6064130;28;108606;-70
2023/09/06 05:50:21;;;;;;;5.30;4.80;;;;;;;22.91;50.81;95571.81;6064685;28;108607;-71
2023/09/06 05:53:26;;;;;;;5.13;4.63;;;;;;;22.91;50.62;95574.50;6057193;28;108804;-68
2023/09/06 05:56:29;;;;;;;5.30;4.80;;;;;;;22.92;50.65;95570.72;6063802;28;108881;-70
2023/09/06 05:59:32;;;;;;;5.10;4.60;;;;;;;22.92;50.76;95576.84;6064219;28;108920;-71
2023/09/06 06:02:37;;;;;;;5.15;4.75;;;;;;;22.93;50.09;95580.31;6064056;28;108826;-70
2023/09/06 06:05:41;;;;;;;5.50;4.63;;;;;;;22.93;50.75;95588.31;6053561;28;108767;-69
2023/09/06 06:08:45;;;;;;;5.10;4.60;;;;;;;22.94;50.64;95595.25;6063915;28;108966;-69
2023/09/06 06:11:48;;;;;;;5.63;4.68;;;;;;;22.95;50.41;95594.94;6064193;28;108762;-69
2023/09/06 06:14:52;;;;;;;4.90;4.50;;;;;;;22.96;50.59;95601.06;6063726;28;108643;-69
2023/09/06 06:17:56;;;;;;;4.63;4.23;;;;;;;22.96;50.18;95596.53;6052795;28;108891;-70
2023/09/06 06:20:59;;;;;;;4.80;4.40;;;;;;;22.97;50.31;95599.97;6063652;28;108682;-69
2023/09/06 06:24:03;;;;;;;5.20;4.70;;;;;;;23.00;50.58;95607.38;6063989;28;108702;-70
2023/09/06 06:27:06;;;;;;;5.70;4.63;;;;;;;22.99;50.00;95611.94;6058504;28;108767;-69
2023/09/06 06:30:11;;;;;;;5.13;4.63;;;;;;;23.01;50.12;95608.97;6057754;28;109210;-70
2023/09/06 06:37:18;;;;;;;4.80;4.40;;;;;;;23.04;50.29;95616.41;6040146;28;108968;-69
2023/09/06 06:40:22;;;;;;;5.10;4.65;;;;;;;23.05;49.80;95617.19;6028940;28;108680;-69
2023/09/06 06:43:26;;;;;;;4.50;4.20;;;;;;;23.03;49.65;95622.03;6039717;28;108660;-70
2023/09/06 06:46:31;;;;;;;4.55;4.25;;;;;;;23.05;49.67;95626.00;6039230;28;108843;-71
2023/09/06 06:49:36;;;;;;;4.70;4.30;;;;;;;23.06;49.72;95629.44;6036120;28;109697;-68
2023/09/06 06:52:44;;;;;;;4.70;4.30;;;;;;;23.08;50.22;95635.28;6033600;28;109152;-60
2023/09/06 06:55:47;;;;;;;5.00;4.60;;;;;;;23.06;49.74;95630.25;6048782;28;108913;-61
2023/09/06 06:58:51;;;;;;;4.53;4.13;;;;;;;23.07;49.96;95631.03;6062771;28;108615;-60
2023/09/06 07:02:00;;;;;;;4.90;4.50;;;;;;;23.07;50.19;95628.38;6051703;28;108916;-62
2023/09/06 07:05:05;;;;;;;4.67;4.23;;;;;;;23.07;50.01;95634.50;6062191;28;109094;-61
2023/09/06 07:08:08;;;;;;;4.70;4.30;;;;;;;23.06;50.06;95627.56;6062700;28;109270;-61
2023/09/06 07:11:11;;;;;;;5.28;4.78;;;;;;;23.08;50.11;95636.06;6063010;28;108668;-61
2023/09/06 07:14:17;;;;;;;4.80;4.40;;;;;;;23.09;49.91;95634.19;6051714;28;108873;-61
2023/09/06 07:17:20;;;;;;;4.60;4.20;;;;;;;23.09;49.84;95632.31;6062317;28;108830;-61
2023/09/06 07:20:24;;;;;;;4.85;4.43;;;;;;;23.09;49.77;95639.53;6062393;28;108658;-61
2023/09/06 07:23:28;;;;;;;4.55;4.15;;;;;;;23.10;49.82;95646.44;6062780;28;109051;-61
2023/09/06 07:26:31;;;;;;;4.88;4.47;;;;;;;23.10;50.01;95644.56;6051371;28;108892;-61
2023/09/06 07:29:35;;;;;;;4.75;4.35;;;;;;;23.12;49.47;95641.59;6062487;28;108693;-60
2023/09/06 07:32:38;;;;;;;4.77;4.37;;;;;;;23.13;49.83;95641.31;6062151;28;108842;-61
2023/09/06 07:35:43;;;;;;;4.40;4.00;;;;;;;23.15;49.50;95646.34;6057057;28;108916;-61
2023/09/06 07:38:46;;;;;;;4.40;4.10;;;;;;;23.16;49.90;95637.25;6056574;28;108952;-61
2023/09/06 07:41:51;;;;;;;4.35;3.95;;;;;;;23.19;49.36;95634.78;6061133;28;108595;-60
2023/09/06 07:44:56;;;;;;;4.60;4.20;;;;;;;23.24;49.63;95626.66;6061706;28;108808;-62
2023/09/06 07:48:01;;;;;;;4.88;4.38;;;;;;;23.30;48.93;95622.03;6051562;28;109380;-60
2023/09/06 07:51:06;;;;;;;4.65;4.25;;;;;;;23.36;49.15;95625.41;6062093;28;108949;-61
2023/09/06 07:54:10;;;;;;;4.78;4.38;;;;;;;23.42;49.21;95613.50;6061435;28;109046;-60
2023/09/06 07:57:13;;;;;;;4.30;4.00;;;;;;;23.47;48.61;95622.19;6061251;28;108668;-60
2023/09/06 08:00:17;;;;;;;4.55;4.25;;;;;;;23.53;48.98;95620.22;6051589;28;109165;-60
2023/09/06 08:03:20;;;;;;;4.35;4.05;;;;;;;23.60;48.36;95616.03;6061646;28;108599;-66
2023/09/06 08:06:24;;;;;;;4.60;4.20;;;;;;;23.64;48.72;95615.44;6061564;28;108591;-65
2023/09/06 08:09:28;;;;;;;4.47;4.07;;;;;;;23.70;48.22;95623.06;6057281;28;108571;-64
2023/09/06 08:12:31;;;;;;;4.07;3.78;;;;;;;23.78;48.47;95624.19;6055331;28;108902;-66
2023/09/06 08:15:36;;;;;;;4.32;3.92;;;;;;;23.83;48.18;95627.53;6061170;28;108633;-65
2023/09/06 08:18:40;;;;;;;3.80;3.50;;;;;;;23.94;47.88;95624.66;6060948;28;108588;-65
2023/09/06 08:21:45;;;;;;;4.25;3.90;;;;;;;23.97;47.92;95626.72;6050351;28;109288;-65
2023/09/06 08:24:48;;;;;;;4.20;3.80;;;;;;;23.98;47.90;95631.75;6061143;28;108881;-64
2023/09/06 08:27:51;;;;;;;4.53;4.13;;;;;;;23.96;47.96;95620.56;6037595;28;108609;-65
2023/09/06 08:30:54;;;;;;;4.10;3.70;;;;;;;23.97;47.73;95632.84;6037337;28;108803;-65
2023/09/06 08:33:58;;;;;;;3.90;3.60;;;;;;;23.97;47.78;95629.38;6026607;28;108833;-66
2023/09/06 08:37:02;;;;;;;4.00;3.70;;;;;;;23.96;47.70;95627.81;6037546;28;108858;-66
2023/09/06 08:40:07;;;;;;;4.25;3.92;;;;;;;23.96;47.90;95627.81;6037589;28;108728;-66
2023/09/06 08:43:14;;;;;;;4.20;3.90;;;;;;;23.99;47.58;95624.53;6037059;28;108900;-65
2023/09/06 08:46:21;;;;;;;4.10;3.80;;;;;;;24.04;47.86;95630.59;6025516;28;108818;-65
2023/09/06 08:49:25;;;;;;;4.00;3.70;;;;;;;24.06;47.51;95630.28;6037144;28;109040;-64
2023/09/06 08:52:31;;;;;;;4.00;3.70;;;;;;;24.09;47.84;95635.03;6038934;28;108696;-67
2023/09/06 08:55:34;;;;;;;4.22;3.92;;;;;;;24.10;47.75;95634.72;6038413;28;108779;-66
2023/09/06 08:58:37;;;;;;;4.23;3.93;;;;;;;24.09;47.64;95637.69;6064098;28;108897;-65
2023/09/06 09:01:40;;;;;;;4.50;4.10;;;;;;;24.09;47.55;95641.16;6065041;28;108783;-65
2023/09/06 09:04:44;;;;;;;4.23;3.80;;;;;;;24.08;47.65;95630.75;6065002;28;109033;-65
2023/09/06 09:07:50;;;;;;;3.70;3.40;;;;;;;24.06;47.75;95623.03;6053608;28;109019;-64
2023/09/06 09:11:08;;;;;;;4.00;3.70;;;;;;;24.08;47.67;95626.19;6065245;28;108942;-68
2023/09/06 09:14:19;;;;;;;3.90;3.50;;;;;;;24.08;47.74;95625.41;6065050;28;108542;-60
2023/09/06 09:17:23;;;;;;;3.70;3.40;;;;;;;24.08;47.71;95625.41;6064494;28;108888;-60
2023/09/06 09:20:27;;;;;;;3.88;3.58;;;;;;;24.06;47.87;95630.28;6053932;28;110865;-61
2023/09/06 09:23:32;;;;;;;3.97;3.67;;;;;;;24.05;47.55;95620.69;6064901;28;108665;-60
2023/09/06 09:26:35;;;;;;;3.90;3.60;;;;;;;24.07;47.72;95623.84;6064465;28;108981;-70
2023/09/06 09:29:39;;;;;;;3.90;3.60;;;;;;;24.09;47.60;95622.44;6056614;28;108857;-61
2023/09/06 09:32:43;;;;;;;4.00;3.70;;;;;;;24.11;47.86;95620.25;6063297;28;108899;-60
2023/09/06 09:35:47;;;;;;;3.80;3.50;;;;;;;24.15;47.56;95615.84;6064623;28;108664;-61
2023/09/06 09:38:52;;;;;;;3.83;3.43;;;;;;;24.13;47.79;95620.72;6064230;28;108730;-60
2023/09/06 09:41:59;;;;;;;4.03;3.63;;;;;;;24.16;47.37;95617.44;6053534;28;108841;-61
2023/09/06 09:45:03;;;;;;;4.30;3.90;;;;;;;24.18;47.56;95615.25;6063290;28;108852;-60
2023/09/06 09:48:08;;;;;;;4.00;3.70;;;;;;;24.19;47.18;95619.53;6064045;28;108848;-61
2023/09/06 09:51:16;;;;;;;3.60;3.30;;;;;;;24.19;47.16;95614.19;6063728;28;108577;-61
2023/09/06 09:54:22;;;;;;;4.03;3.63;;;;;;;24.21;47.72;95619.22;6052924;28;108733;-60
2023/09/06 09:57:26;;;;;;;3.78;3.47;;;;;;;24.19;47.36;95616.03;6063847;28;108941;-61
2023/09/06 10:00:30;;;;;;;3.95;3.65;;;;;;;24.19;47.27;95616.03;6063759;28;108646;-61
2023/09/06 10:03:34;;;;;;;3.80;3.50;;;;;;;24.20;47.30;95604.28;6057391;28;108555;-60
2023/09/06 10:06:40;;;;;;;3.80;3.50;;;;;;;24.21;47.33;95611.19;6059355;28;108982;-61
2023/09/06 10:09:44;;;;;;;3.70;3.40;;;;;;;24.19;47.32;95605.34;6063842;28;108889;-61
2023/09/06 10:12:50;;;;;;;3.60;3.30;;;;;;;24.18;47.33;95599.19;6063654;28;108583;-61
2023/09/06 10:15:55;;;;;;;3.75;3.45;;;;;;;24.16;47.47;95592.59;6052848;28;108749;-60
2023/09/06 10:18:59;;;;;;;3.60;3.30;;;;;;;24.15;47.54;95588.34;6063640;28;109044;-61
2023/09/06 10:22:04;;;;;;;3.60;3.30;;;;;;;24.14;47.69;95592.09;6063258;28;108571;-62
2023/09/06 10:25:10;;;;;;;3.90;3.60;;;;;;;24.14;47.44;95592.88;6063159;28;109013;-62
2023/09/06 10:28:14;;;;;;;3.60;3.30;;;;;;;24.12;47.50;95594.28;6052424;28;109057;-60
2023/09/06 10:31:17;;;;;;;3.90;3.60;;;;;;;24.12;47.58;95584.38;6063638;28;108890;-61
2023/09/06 10:34:21;;;;;;;3.80;3.50;;;;;;;24.12;47.77;95592.41;6063448;28;108675;-60
2023/09/06 10:38:07;;;;;;;3.63;3.33;;;;;;;24.10;47.55;95589.25;6057983;28;108792;-61
2023/09/06 10:41:12;;;;;;;3.83;3.53;;;;;;;24.12;47.46;95588.94;6062974;28;108618;-60
2023/09/06 10:44:15;;;;;;;3.90;3.50;;;;;;;24.11;47.49;95587.38;6063109;28;108567;-62
2023/09/06 10:47:28;;;;;;;3.70;3.40;;;;;;;24.11;47.64;95585.47;6062115;28;108657;-60
2023/09/06 10:50:32;;;;;;;3.80;3.50;;;;;;;24.11;47.25;95587.38;6051651;28;109250;-60
2023/09/06 10:53:35;;;;;;;4.00;3.70;;;;;;;24.10;47.39;95583.91;6062648;28;108894;-60
2023/09/06 10:56:40;;;;;;;3.60;3.30;;;;;;;24.08;47.42;95580.75;6063051;28;108762;-61
2023/09/06 10:59:45;;;;;;;3.70;3.40;;;;;;;24.08;47.63;95582.63;6063091;28;108603;-61
2023/09/06 11:03:20;;;;;;;3.70;3.40;;;;;;;24.07;47.45;95579.16;6053592;28;108983;-60
2023/09/06 11:06:26;;;;;;;3.80;3.50;;;;;;;24.06;47.41;95576.81;6062723;28;108879;-61
2023/09/06 11:09:29;;;;;;;3.70;3.40;;;;;;;24.07;47.58;95573.03;6062592;28;108893;-61
2023/09/06 11:12:35;;;;;;;3.80;3.50;;;;;;;24.06;47.81;95582.16;6052539;28;109833;-60
2023/09/06 11:15:39;;;;;;;3.60;3.30;;;;;;;24.04;47.36;95574.44;6063082;28;109041;-61
2023/09/06 11:18:44;;;;;;;3.72;3.42;;;;;;;24.05;47.81;95568.00;6062078;28;108546;-61
2023/09/06 11:21:47;;;;;;;3.45;3.15;;;;;;;24.05;47.65;95572.56;6062478;28;108585;-60
2023/09/06 11:24:51;;;;;;;3.63;3.33;;;;;;;24.05;47.62;95572.56;6051803;28;109030;-60
2023/09/06 11:27:59;;;;;;;3.50;3.20;;;;;;;24.03;47.82;95566.72;6061879;28;108831;-62
2023/09/06 11:31:04;;;;;;;3.40;3.10;;;;;;;24.03;47.47;95564.06;6062040;28;108575;-61
2023/09/06 11:34:11;;;;;;;3.90;3.40;;;;;;;24.01;47.85;95561.66;6057196;28;108992;-61
2023/09/06 11:37:16;;;;;;;3.20;2.97;;;;;;;24.01;47.97;95560.88;6056125;28;108889;-60
2023/09/06 11:40:20;;;;;;;3.40;3.10;;;;;;;23.99;48.02;95557.69;6061907;28;108745;-60
2023/09/06 11:43:27;;;;;;;3.67;3.37;;;;;;;23.98;47.80;95556.09;6061669;28;108564;-63
2023/09/06 11:46:31;;;;;;;3.30;3.10;;;;;;;23.99;47.77;95557.69;6050566;28;109785;-60
2023/09/06 11:49:35;;;;;;;3.60;3.30;;;;;;;23.98;47.74;95550.75;6061644;28;108576;-62
2023/09/06 11:52:40;;;;;;;3.83;3.53;;;;;;;23.97;47.65;95549.19;6061921;28;108725;-60
2023/09/06 11:56:00;;;;;;;3.20;3.00;;;;;;;23.97;47.60;95549.19;6061364;28;108880;-60
2023/09/06 11:59:12;;;;;;;3.40;3.10;;;;;;;23.98;47.88;95538.19;6050754;28;108775;-61
2023/09/06 12:02:15;;;;;;;3.60;3.30;;;;;;;23.97;47.72;95546.50;6061568;28;109084;-61
2023/09/06 12:05:23;;;;;;;3.50;3.20;;;;;;;23.96;47.87;95537.69;6061589;28;108716;-64
2023/09/06 12:08:41;;;;;;;3.80;3.50;;;;;;;23.97;48.03;95543.84;6054465;28;108888;-64
2023/09/06 12:11:45;;;;;;;3.78;3.47;;;;;;;23.96;48.10;95535.03;6059058;28;108794;-62
2023/09/06 12:14:51;;;;;;;3.25;2.95;;;;;;;23.96;47.90;95531.56;6061539;28;108773;-61
2023/09/06 12:17:54;;;;;;;3.50;3.20;;;;;;;23.95;47.79;95524.63;6061479;28;108582;-61
2023/09/06 12:20:58;;;;;;;3.30;3.00;;;;;;;23.94;47.81;95523.84;6050430;28;111987;-60
2023/09/06 12:24:01;;;;;;;3.13;2.92;;;;;;;23.96;48.08;95520.88;6061313;28;108929;-60
2023/09/06 12:27:07;;;;;;;4.00;3.30;;;;;;;23.96;47.93;95520.88;6060162;28;108621;-61
2023/09/06 12:30:14;;;;;;;3.30;3.00;;;;;;;23.97;47.96;95519.78;6061021;28;108886;-61
2023/09/06 12:33:18;;;;;;;3.58;3.28;;;;;;;23.96;47.68;95527.00;6050735;28;108568;-60
2023/09/06 12:36:21;;;;;;;3.40;3.10;;;;;;;23.95;47.90;95512.06;6060974;28;108941;-61
2023/09/06 12:39:24;;;;;;;3.57;3.27;;;;;;;23.94;47.91;95507.03;6060782;28;108874;-62
2023/09/06 12:42:27;;;;;;;3.50;3.20;;;;;;;23.96;47.91;95510.97;6056401;28;108801;-65
2023/09/06 12:45:33;;;;;;;3.10;2.90;;;;;;;23.95;47.79;95513.94;6054174;28;109037;-64
2023/09/06 12:48:37;;;;;;;3.50;3.20;;;;;;;23.93;47.97;95505.44;6061142;28;108705;-63
2023/09/06 12:52:39;;;;;;;3.30;3.00;;;;;;;23.95;47.77;95498.69;6061072;28;108578;-63
2023/09/06 12:55:42;;;;;;;3.15;2.95;;;;;;;23.97;48.04;95501.06;6046163;28;108670;-64
2023/09/06 12:58:45;;;;;;;3.35;3.05;;;;;;;23.94;47.85;95502.47;6060341;28;109055;-63
2023/09/06 13:01:50;;;;;;;3.50;3.20;;;;;;;23.90;48.13;95502.28;6060422;28;108604;-63
2023/09/06 13:04:53;;;;;;;3.00;2.80;;;;;;;23.89;48.10;95503.41;6056508;28;108957;-65
2023/09/06 13:07:57;;;;;;;3.10;2.90;;;;;;;23.88;48.09;95495.69;6054708;28;108993;-63
2023/09/06 13:11:00;;;;;;;3.30;3.00;;;;;;;23.87;47.60;95488.75;6060694;28;109125;-64
2023/09/06 13:14:03;;;;;;;3.30;3.00;;;;;;;23.87;47.68;95491.44;6060505;28;108603;-64
2023/09/06 13:17:07;;;;;;;3.20;2.90;;;;;;;23.85;47.85;95489.03;6049781;28;108725;-64
2023/09/06 13:20:11;;;;;;;3.00;2.80;;;;;;;23.85;47.92;95489.03;6060661;28;109021;-64
2023/09/06 13:23:15;;;;;;;3.50;3.20;;;;;;;23.83;47.87;95483.22;6060909;28;108861;-63
2023/09/06 13:26:18;;;;;;;3.47;3.17;;;;;;;23.83;48.00;95488.56;6060083;28;108866;-65
2023/09/06 13:29:21;;;;;;;3.03;2.83;;;;;;;23.83;47.69;95479.75;6050517;28;112083;-64
2023/09/06 13:32:26;;;;;;;3.40;3.10;;;;;;;23.85;47.98;95485.56;6059973;28;108850;-64
2023/09/06 13:35:29;;;;;;;3.33;3.13;;;;;;;23.82;48.18;95492.31;6060211;28;109184;-63
2023/09/06 13:38:32;;;;;;;3.10;2.90;;;;;;;23.82;47.86;95483.53;6060749;28;108595;-63
2023/09/06 13:41:35;;;;;;;3.30;3.00;;;;;;;23.81;47.98;95481.94;6052742;28;108819;-63
2023/09/06 13:44:38;;;;;;;3.42;3.17;;;;;;;23.80;47.98;95486.50;6063995;28;108693;-63
2023/09/06 13:47:43;;;;;;;3.30;3.00;;;;;;;23.80;48.51;95488.38;6063624;28;109046;-65
2023/09/06 13:50:46;;;;;;;3.03;2.83;;;;;;;23.78;48.32;95480.69;6058573;28;109162;-63
2023/09/06 13:53:50;;;;;;;3.30;3.00;;;;;;;23.78;48.24;95486.03;6059330;28;108786;-65
2023/09/06 13:56:52;;;;;;;3.40;3.10;;;;;;;23.78;48.12;95483.34;6063548;28;108709;-65
2023/09/06 13:59:56;;;;;;;3.50;3.20;;;;;;;23.77;48.23;95487.13;6063433;28;108902;-65
2023/09/06 14:03:00;;;;;;;3.28;2.97;;;;;;;23.78;48.30;95483.34;6053029;28;108764;-66
2023/09/06 14:06:04;;;;;;;3.50;3.20;;;;;;;23.78;48.19;95480.69;6063653;28;108922;-66
2023/09/06 14:09:10;;;;;;;3.30;3.00;;;;;;;23.78;48.31;95477.22;6063597;28;108850;-66
2023/09/06 14:12:13;;;;;;;3.05;2.85;;;;;;;23.77;48.06;95476.44;6063836;28;108627;-66
2023/09/06 14:15:16;;;;;;;3.35;3.05;;;;;;;23.77;48.34;95476.44;6053359;28;109173;-65
2023/09/06 14:18:21;;;;;;;3.10;2.90;;;;;;;23.78;48.31;95477.22;6063634;28;108907;-65
2023/09/06 14:21:24;;;;;;;3.15;2.95;;;;;;;23.79;48.16;95478.78;6063509;28;108699;-66
2023/09/06 14:24:28;;;;;;;3.10;2.90;;;;;;;23.78;48.19;95477.22;6060219;28;108575;-66